»·PEaware :: N721AP KSNA-KHND

N721AP :: KSNA-KHND

FLIGHT INFORMATION

Flight Status: Arrived
Operator: Privately registered:
United States
More flights under this callsign
Pilot: Sally S. (18014)
Aircraft: Unknown
(SF50)
More flights by this aircraft type
Origin: KSNA John Wayne-Orange Co
United States
Destination: KHND Henderson
United States
More flights between these airports :: More routes between these airports
Route: +MUSEL8 DAG JOMIX1
File this flight plan on PilotEdge
Remarks:
Altitude:
(Current/Filed)
21,000ft
Speed:
(Current/Filed)
250kts
Departed: 16-Feb-18 06:21 PM
Arrived: 16-Feb-18 07:17 PM
Distance/Time
Traveled:
196nm/0:56
Distance/Time
To Go:
Arrived

Flight Plot

Page will automatically refresh every two minutes.

Flight plan parsing failed; only flown route is shown


Map Options




Map Legend


Flown Route
Filed Route
Departure Airport
Arrival Airport
Navaid (VOR, NDB)
Fix

Horizontal Profiles

Position Reports

Time Latitude Longitude Heading Altitude Ground
Speed
16-Feb-18 18:09 33.672563 -117.866290 298 60ft 0kts
16-Feb-18 18:10 33.672563 -117.866290 298 60ft 0kts
16-Feb-18 18:11 33.672563 -117.866290 298 60ft 0kts
16-Feb-18 18:12 33.672563 -117.866290 298 60ft 0kts
16-Feb-18 18:13 33.672563 -117.866290 298 60ft 0kts
16-Feb-18 18:14 33.672563 -117.866290 298 60ft 0kts
16-Feb-18 18:15 33.672563 -117.866290 298 60ft 0kts
16-Feb-18 18:16 33.672563 -117.866290 298 60ft 0kts
16-Feb-18 18:17 33.672563 -117.866290 298 60ft 0kts
16-Feb-18 18:18 33.673113 -117.867121 10 60ft 13kts
16-Feb-18 18:19 33.676308 -117.865096 25 60ft 7kts
16-Feb-18 18:20 33.679604 -117.863041 27 60ft 14kts
16-Feb-18 18:21 33.680016 -117.862783 24 60ft 0kts
16-Feb-18 18:22 33.680690 -117.863196 294 60ft 0kts
16-Feb-18 18:23 33.680690 -117.863195 294 60ft 0kts
16-Feb-18 18:24 33.681062 -117.864080 299 60ft 7kts
16-Feb-18 18:25 33.681156 -117.864283 297 60ft 0kts
16-Feb-18 18:26 33.681156 -117.864283 297 60ft 0kts
16-Feb-18 18:27 33.681192 -117.865332 208 60ft 0kts
16-Feb-18 18:28 33.671475 -117.871528 209 234ft 136kts
16-Feb-18 18:29 33.626580 -117.893403 188 2842ft 200kts
16-Feb-18 18:30 33.571873 -117.903250 188 5954ft 208kts
16-Feb-18 18:31 33.549050 -117.962836 261 8013ft 247kts
16-Feb-18 18:32 33.538070 -118.050403 261 9981ft 247kts
16-Feb-18 18:33 33.571130 -118.102153 9 11934ft 254kts
16-Feb-18 18:34 33.641300 -118.087002 10 13727ft 261kts
16-Feb-18 18:35 33.713292 -118.070670 10 15305ft 268kts
16-Feb-18 18:36 33.786477 -118.050592 35 16670ft 274kts
16-Feb-18 18:37 33.861054 -118.047608 353 17855ft 279kts
16-Feb-18 18:38 33.926278 -118.010168 47 19005ft 280kts
16-Feb-18 18:39 33.978263 -117.940542 48 20174ft 280kts
16-Feb-18 18:40 34.030048 -117.870198 48 20999ft 290kts
16-Feb-18 18:41 34.086733 -117.795068 34 20974ft 314kts
16-Feb-18 18:42 34.171232 -117.769542 12 21001ft 321kts
16-Feb-18 18:43 34.254613 -117.733714 40 20985ft 324kts
16-Feb-18 18:44 34.308002 -117.646269 53 21000ft 325kts
16-Feb-18 18:45 34.362263 -117.558793 52 21000ft 325kts
16-Feb-18 18:46 34.416365 -117.471491 52 21000ft 325kts
16-Feb-18 18:47 34.470630 -117.383710 52 21000ft 326kts
16-Feb-18 18:48 34.524816 -117.295848 53 21000ft 327kts
16-Feb-18 18:49 34.579113 -117.207582 53 20999ft 326kts
16-Feb-18 18:50 34.633271 -117.119331 53 20998ft 326kts
16-Feb-18 18:51 34.687314 -117.031047 53 20999ft 326kts
16-Feb-18 18:52 34.741258 -116.942704 53 20999ft 325kts
16-Feb-18 18:53 34.795079 -116.854346 53 20999ft 325kts
16-Feb-18 18:54 34.848749 -116.766008 53 20999ft 325kts
16-Feb-18 18:55 34.902402 -116.677480 53 21000ft 325kts
16-Feb-18 18:56 34.954525 -116.587388 71 20970ft 326kts
16-Feb-18 18:57 34.948381 -116.478348 98 21002ft 325kts
16-Feb-18 18:58 34.953798 -116.371608 66 21002ft 325kts
16-Feb-18 18:59 34.987752 -116.271341 68 21000ft 325kts
16-Feb-18 19:00 35.021753 -116.169257 68 21000ft 325kts
16-Feb-18 19:01 35.055664 -116.067048 68 21000ft 325kts
16-Feb-18 19:02 35.089619 -115.964356 68 21000ft 325kts
16-Feb-18 19:03 35.123203 -115.862454 68 20325ft 342kts
16-Feb-18 19:04 35.159048 -115.753312 68 19094ft 344kts
16-Feb-18 19:05 35.193309 -115.648623 67 17675ft 323kts
16-Feb-18 19:06 35.226105 -115.548060 68 16271ft 316kts
16-Feb-18 19:07 35.258252 -115.449154 68 14698ft 313kts
16-Feb-18 19:08 35.289727 -115.352014 68 13600ft 302kts
16-Feb-18 19:09 35.319868 -115.258683 68 12809ft 302kts
16-Feb-18 19:10 35.350706 -115.162896 68 11919ft 303kts
16-Feb-18 19:11 35.380908 -115.068782 68 11012ft 292kts
16-Feb-18 19:12 35.410366 -114.976700 68 10109ft 286kts
16-Feb-18 19:13 35.449554 -114.896855 16 9987ft 282kts
16-Feb-18 19:14 35.523347 -114.914420 339 8477ft 272kts
16-Feb-18 19:15 35.589401 -114.951380 336 6995ft 243kts
16-Feb-18 19:16 35.651013 -114.980875 338 6998ft 234kts
16-Feb-18 19:17 35.712189 -115.009961 338 7000ft 238kts
16-Feb-18 19:18 35.773496 -115.038046 343 5996ft 223kts
16-Feb-18 19:19 35.824365 -115.071037 332 5996ft 197kts
16-Feb-18 19:20 35.865928 -115.102640 326 5948ft 151kts
16-Feb-18 19:21 35.900838 -115.125894 341 4899ft 124kts
16-Feb-18 19:22 35.933011 -115.134320 353 3493ft 135kts
16-Feb-18 19:23 35.960203 -115.135607 0 2594ft 83kts
16-Feb-18 19:24 35.973872 -115.135501 4 2496ft 10kts
16-Feb-18 19:25 35.974356 -115.136615 272 2496ft 19kts
16-Feb-18 19:33 36.082046 -115.171630 0 2145ft 0kts
16-Feb-18 19:34 36.082046 -115.171630 0 2145ft 0kts
16-Feb-18 19:35 36.082046 -115.171630 0 2145ft 0kts
16-Feb-18 19:36 36.082046 -115.171630 0 2145ft 0kts
16-Feb-18 19:37 36.082046 -115.171630 0 2145ft 0kts
16-Feb-18 19:38 36.082046 -115.171630 0 2145ft 0kts

Navigation Log

Ident Type
Flight plan parsing failed, navigation log unavailable